Time;durP1;ratioP1;P1;durP2;ratioP2;P2;SDS_P1;SDS_P2;PMS_P1;PMS_P2;Temp;Humidity;BMP_temperature;BMP_pressure;BME280_temperature;BME280_humidity;BME280_pressure;Samples;Min_cycle;Max_cycle;Signal;HPM_P1;HPM_P2
2020/12/06 00:02:13;;;;;;;11.10;9.47;;;6.50;99.90;;;;;;4968457;28;20567;-76
2020/12/06 00:04:38;;;;;;;10.60;8.40;;;6.50;99.90;;;;;;4936730;29;20584;-79
2020/12/06 00:07:04;;;;;;;8.03;7.23;;;6.50;99.90;;;;;;4951983;29;20243;-79
2020/12/06 00:09:30;;;;;;;10.13;8.20;;;6.50;99.90;;;;;;4952131;29;20705;-79
2020/12/06 00:11:57;;;;;;;8.10;7.30;;;6.50;99.90;;;;;;4952121;29;20572;-79
2020/12/06 00:14:23;;;;;;;7.50;6.70;;;6.50;99.90;;;;;;4953627;29;20763;-79
2020/12/06 00:16:49;;;;;;;8.30;7.38;;;6.50;99.90;;;;;;4952429;29;20192;-79
2020/12/06 00:19:15;;;;;;;10.87;8.47;;;6.50;99.90;;;;;;4951962;29;20172;-79
2020/12/06 00:21:41;;;;;;;7.87;7.20;;;6.50;99.90;;;;;;4953398;29;20659;-79
2020/12/06 00:24:06;;;;;;;10.90;8.90;;;6.50;99.90;;;;;;4953235;29;20591;-79
2020/12/06 00:26:32;;;;;;;10.50;9.40;;;6.50;99.90;;;;;;4939015;29;20193;-79
2020/12/06 00:28:58;;;;;;;9.70;8.60;;;6.50;99.90;;;;;;4937449;29;20592;-79
2020/12/06 00:31:24;;;;;;;10.50;9.17;;;6.50;99.90;;;;;;4967974;28;20595;-79
2020/12/06 00:33:50;;;;;;;9.40;7.87;;;6.50;99.90;;;;;;4935319;29;20272;-79
2020/12/06 00:36:16;;;;;;;8.40;7.10;;;6.50;99.90;;;;;;4952935;29;20624;-79
2020/12/06 00:38:43;;;;;;;6.70;6.00;;;6.50;99.90;;;;;;4952776;29;20575;-79
2020/12/06 00:41:13;;;;;;;9.02;7.88;;;6.50;99.90;;;;;;4935517;29;20176;-79
2020/12/06 00:43:40;;;;;;;8.93;7.55;;;6.50;99.90;;;;;;4967764;28;20180;-79
2020/12/06 00:46:06;;;;;;;9.35;7.93;;;6.50;99.90;;;;;;4951651;29;20536;-79
2020/12/06 00:48:33;;;;;;;7.72;6.90;;;6.60;99.90;;;;;;4951421;28;20176;-80
2020/12/06 00:50:59;;;;;;;10.43;8.25;;;6.60;99.90;;;;;;4952676;29;20263;-79
2020/12/06 00:53:26;;;;;;;9.52;8.52;;;6.60;99.90;;;;;;4967678;28;20635;-79
2020/12/06 00:55:52;;;;;;;10.95;9.38;;;6.60;99.90;;;;;;4967248;28;20212;-80
2020/12/06 00:58:19;;;;;;;11.30;8.85;;;6.60;99.90;;;;;;4967345;28;20172;-79
2020/12/06 01:00:45;;;;;;;9.98;8.50;;;6.70;99.90;;;;;;4967411;28;20171;-80
2020/12/06 01:03:12;;;;;;;8.68;7.78;;;6.70;99.90;;;;;;4952678;29;20165;-79
2020/12/06 01:05:38;;;;;;;9.30;8.30;;;6.70;99.90;;;;;;4972856;28;20202;-79
2020/12/06 01:08:04;;;;;;;8.65;7.30;;;6.70;99.90;;;;;;4952740;29;20584;-79
2020/12/06 01:10:30;;;;;;;13.45;8.40;;;6.70;99.90;;;;;;4952870;29;20168;-79
2020/12/06 01:12:58;;;;;;;8.07;7.28;;;6.70;99.90;;;;;;4952973;29;20172;-79
2020/12/06 01:15:25;;;;;;;11.35;9.25;;;6.70;99.90;;;;;;4951711;29;20204;-79
2020/12/06 01:17:52;;;;;;;9.82;8.82;;;6.70;99.90;;;;;;4952573;29;20251;-79
2020/12/06 01:20:18;;;;;;;10.77;8.80;;;6.70;99.90;;;;;;4952704;29;20164;-79
2020/12/06 01:22:44;;;;;;;9.53;8.63;;;6.70;99.90;;;;;;4951612;29;20577;-80
2020/12/06 01:25:10;;;;;;;10.03;8.33;;;6.80;99.90;;;;;;4967324;28;20651;-79
2020/12/06 01:27:36;;;;;;;10.07;9.07;;;6.80;99.90;;;;;;4952121;29;21028;-79
2020/12/06 01:30:04;;;;;;;8.80;7.10;;;6.80;99.90;;;;;;4952253;29;20263;-79
2020/12/06 01:32:32;;;;;;;8.02;7.30;;;6.70;99.90;;;;;;4952152;29;20587;-80
2020/12/06 01:35:02;;;;;;;9.13;8.18;;;6.80;99.90;;;;;;4966851;28;20216;-80
2020/12/06 01:37:28;;;;;;;9.70;7.47;;;6.80;99.90;;;;;;4951884;29;20171;-80
2020/12/06 01:39:54;;;;;;;9.10;7.67;;;6.80;99.90;;;;;;4952352;29;20255;-80
2020/12/06 01:42:19;;;;;;;9.73;8.70;;;6.80;99.90;;;;;;4972425;28;20195;-79
2020/12/06 01:44:45;;;;;;;8.50;7.70;;;6.70;99.90;;;;;;4952304;29;20572;-79
2020/12/06 01:47:12;;;;;;;8.90;7.60;;;6.80;99.90;;;;;;4953931;28;20224;-79
2020/12/06 01:49:38;;;;;;;9.68;8.32;;;6.80;99.90;;;;;;4957910;29;20568;-78
2020/12/06 01:52:08;;;;;;;9.00;7.27;;;6.70;99.90;;;;;;4958584;29;20180;-79
2020/12/06 01:54:35;;;;;;;9.65;8.20;;;6.70;99.90;;;;;;4954860;29;20662;-80
2020/12/06 01:57:02;;;;;;;8.18;7.38;;;6.80;99.90;;;;;;4954567;28;20200;-79
2020/12/06 01:59:28;;;;;;;10.18;8.75;;;6.70;99.90;;;;;;4955746;29;20635;-79
2020/12/06 02:02:02;;;;;;;11.20;8.13;;;6.70;99.90;;;;;;4954448;28;20180;-79
2020/12/06 02:04:30;;;;;;;9.65;8.20;;;6.70;99.90;;;;;;4954588;29;20203;-78
2020/12/06 02:06:57;;;;;;;10.18;8.13;;;6.80;99.90;;;;;;4955618;29;20196;-79
2020/12/06 02:09:24;;;;;;;9.45;8.05;;;6.80;99.90;;;;;;4938331;29;20282;-79
2020/12/06 02:11:50;;;;;;;9.90;8.80;;;6.80;99.90;;;;;;4970454;28;20558;-79
2020/12/06 02:14:17;;;;;;;10.23;9.05;;;6.80;99.90;;;;;;4955355;29;20283;-79
2020/12/06 02:16:43;;;;;;;10.30;8.00;;;6.80;99.90;;;;;;4954291;29;20188;-79
2020/12/06 02:19:10;;;;;;;9.43;8.00;;;6.80;99.90;;;;;;4974261;28;20592;-80
2020/12/06 02:21:39;;;;;;;9.32;8.43;;;6.90;99.90;;;;;;4954118;29;20171;-79
2020/12/06 02:24:06;;;;;;;9.05;7.85;;;6.90;99.90;;;;;;4954046;29;20172;-79
2020/12/06 02:26:40;;;;;;;7.70;6.90;;;6.90;99.90;;;;;;4938219;29;20204;-79
2020/12/06 02:29:06;;;;;;;7.28;6.55;;;7.00;99.90;;;;;;4970005;28;20561;-79
2020/12/06 02:31:32;;;;;;;8.95;8.05;;;7.00;99.90;;;;;;4955080;29;20168;-79
2020/12/06 02:33:58;;;;;;;9.50;8.50;;;7.10;99.90;;;;;;4937965;29;20191;-79
2020/12/06 02:36:24;;;;;;;8.80;7.70;;;7.00;99.90;;;;;;4938157;29;20548;-79
2020/12/06 02:38:51;;;;;;;9.40;8.03;;;7.10;99.90;;;;;;4955025;29;20583;-79
2020/12/06 02:41:17;;;;;;;9.02;7.20;;;7.10;99.90;;;;;;4955039;29;20611;-79
2020/12/06 02:43:43;;;;;;;8.38;7.53;;;7.10;99.90;;;;;;4955232;29;20224;-79
2020/12/06 02:46:09;;;;;;;7.50;6.77;;;7.20;99.90;;;;;;4954825;29;20208;-80
2020/12/06 02:48:35;;;;;;;8.37;7.50;;;7.20;99.90;;;;;;4969640;28;20579;-80
2020/12/06 02:51:05;;;;;;;8.03;6.80;;;7.20;99.90;;;;;;4937555;29;20642;-79
2020/12/06 02:56:22;;;;;;;9.52;8.43;;;7.30;99.90;;;;;;4940025;29;20224;-79
2020/12/06 02:58:55;;;;;;;12.05;9.18;;;7.30;99.90;;;;;;4969396;28;20172;-80
2020/12/06 03:01:21;;;;;;;8.40;7.50;;;7.30;99.90;;;;;;4953548;28;20176;-80
2020/12/06 03:04:00;;;;;;;9.30;8.38;;;7.30;99.90;;;;;;4954176;29;20176;-80
2020/12/06 03:06:49;;;;;;;8.77;7.65;;;7.30;99.90;;;;;;4953608;29;20220;-79
2020/12/06 03:09:35;;;;;;;8.57;7.68;;;7.30;99.90;;;;;;4936333;29;20197;-79
2020/12/06 03:12:20;;;;;;;7.10;6.30;;;7.20;99.90;;;;;;4952408;29;20227;-79
2020/12/06 03:15:02;;;;;;;8.35;7.25;;;7.30;99.90;;;;;;4953532;29;20308;-79
2020/12/06 03:17:36;;;;;;;9.10;8.20;;;7.30;99.90;;;;;;4953282;29;20183;-79
2020/12/06 03:20:31;;;;;;;8.93;7.93;;;7.30;99.90;;;;;;4952780;29;20235;-79
2020/12/06 03:23:54;;;;;;;8.45;7.57;;;7.30;99.90;;;;;;4937416;29;20200;-80
2020/12/06 03:26:28;;;;;;;7.45;6.60;;;7.30;99.90;;;;;;4935634;29;20257;-79
2020/12/06 03:29:19;;;;;;;7.57;6.78;;;7.30;99.90;;;;;;4952386;29;20267;-80
2020/12/06 03:32:03;;;;;;;7.78;6.15;;;7.20;99.90;;;;;;4937086;29;20651;-79
2020/12/06 03:34:48;;;;;;;7.88;6.63;;;7.20;99.90;;;;;;4940246;29;20212;-79
2020/12/06 03:37:22;;;;;;;6.35;5.35;;;7.20;99.90;;;;;;4937564;29;20192;-79
2020/12/06 03:40:24;;;;;;;6.93;6.22;;;7.20;99.90;;;;;;4970311;28;20152;-79
2020/12/06 03:43:08;;;;;;;8.60;6.75;;;7.20;99.90;;;;;;4948774;28;20187;-80
2020/12/06 03:46:34;;;;;;;7.45;6.03;;;7.20;99.90;;;;;;4939163;29;20204;-79
2020/12/06 03:49:07;;;;;;;7.15;6.45;;;7.20;99.90;;;;;;4974366;28;20188;-79
2020/12/06 03:52:28;;;;;;;8.77;6.95;;;7.10;99.90;;;;;;4968511;28;20180;-79
2020/12/06 03:55:05;;;;;;;6.30;5.70;;;7.10;99.90;;;;;;4881551;29;20300;-79
2020/12/06 03:57:43;;;;;;;7.38;6.55;;;7.10;99.90;;;;;;4896919;29;20177;-79
2020/12/06 04:00:45;;;;;;;7.00;6.18;;;7.10;99.90;;;;;;4909598;29;20174;-80
2020/12/06 04:03:31;;;;;;;8.52;7.13;;;7.10;99.90;;;;;;4913690;29;20241;-80
2020/12/06 04:06:13;;;;;;;7.18;6.47;;;7.20;99.90;;;;;;4905656;29;20215;-79
2020/12/06 04:08:58;;;;;;;6.32;5.72;;;7.20;99.90;;;;;;4935892;29;20208;-80
2020/12/06 04:11:43;;;;;;;6.40;5.60;;;7.20;99.90;;;;;;4957033;29;20173;-79
2020/12/06 04:14:37;;;;;;;7.15;6.30;;;7.20;99.90;;;;;;4966600;28;20231;-79
2020/12/06 04:17:48;;;;;;;7.25;6.55;;;7.20;99.90;;;;;;4951841;29;20836;-80
2020/12/06 04:20:29;;;;;;;6.63;5.93;;;7.30;99.90;;;;;;4951829;29;20271;-79
2020/12/06 04:23:17;;;;;;;8.20;6.75;;;7.30;99.90;;;;;;4950435;29;20180;-79
2020/12/06 04:26:05;;;;;;;7.07;6.13;;;7.30;99.90;;;;;;4936138;29;20678;-79
2020/12/06 04:28:49;;;;;;;5.75;5.25;;;7.20;99.90;;;;;;4951702;29;20342;-79
2020/12/06 04:32:10;;;;;;;6.15;5.43;;;7.30;99.90;;;;;;4951081;29;20651;-79
2020/12/06 04:38:15;;;;;;;6.32;5.63;;;7.30;99.90;;;;;;4967780;28;20179;-79
2020/12/06 04:40:47;;;;;;;6.80;6.00;;;7.30;99.90;;;;;;4951607;29;20263;-80
2020/12/06 04:44:22;;;;;;;7.80;6.47;;;7.30;99.90;;;;;;4951707;29;20180;-79
2020/12/06 04:47:08;;;;;;;7.72;5.28;;;7.20;99.90;;;;;;4942082;29;20208;-79
2020/12/06 04:49:58;;;;;;;7.43;6.25;;;7.20;99.90;;;;;;4951312;28;20689;-79
2020/12/06 04:52:59;;;;;;;7.55;6.25;;;7.20;99.90;;;;;;4967465;28;20590;-79
2020/12/06 04:55:36;;;;;;;6.72;6.03;;;7.20;99.90;;;;;;4950837;29;20223;-79
2020/12/06 04:58:23;;;;;;;6.80;5.65;;;7.10;99.90;;;;;;4951434;28;20176;-79
2020/12/06 05:01:34;;;;;;;5.57;4.85;;;7.10;99.90;;;;;;4950071;28;20267;-78
2020/12/06 05:04:26;;;;;;;6.50;5.65;;;7.10;99.90;;;;;;4951542;29;20259;-78
2020/12/06 05:07:32;;;;;;;6.28;5.55;;;7.10;99.90;;;;;;4937896;29;20192;-78
2020/12/06 05:10:22;;;;;;;6.38;5.50;;;7.10;99.90;;;;;;4966982;28;20247;-81
2020/12/06 05:13:04;;;;;;;;;;;;;;;;;;;;;
2020/12/06 05:15:52;;;;;;;7.03;5.97;;;7.20;99.90;;;;;;4967020;28;20259;-80
2020/12/06 05:18:34;;;;;;;6.20;5.60;;;7.20;99.90;;;;;;4983050;28;20168;-78
2020/12/06 05:21:37;;;;;;;8.10;6.90;;;7.20;99.90;;;;;;4950639;28;20187;-79
2020/12/06 05:25:10;;;;;;;9.27;6.63;;;7.20;99.90;;;;;;4970261;28;20531;-79
2020/12/06 05:32:19;;;;;;;4.70;4.30;;;7.10;99.90;;;;;;4983405;28;20215;-78
2020/12/06 05:34:57;;;;;;;6.00;4.90;;;7.20;99.90;;;;;;4951108;29;20667;-79
2020/12/06 05:37:30;;;;;;;4.85;4.43;;;7.20;99.90;;;;;;4950811;28;20186;-79
2020/12/06 05:40:28;;;;;;;6.85;6.15;;;7.20;99.90;;;;;;4951205;29;20184;-81
2020/12/06 05:43:16;;;;;;;6.55;5.82;;;7.20;99.90;;;;;;4951287;29;20176;-79
2020/12/06 05:46:21;;;;;;;5.47;4.97;;;7.30;99.90;;;;;;4919895;29;20551;-79
2020/12/06 05:49:17;;;;;;;5.75;5.15;;;7.40;99.90;;;;;;4950579;28;20184;-79
2020/12/06 05:51:57;;;;;;;6.43;5.43;;;7.40;99.90;;;;;;4951341;29;20181;-79
2020/12/06 05:54:30;;;;;;;5.72;5.13;;;7.50;99.90;;;;;;4951022;29;20208;-79
2020/12/06 05:56:59;;;;;;;6.22;5.63;;;7.50;99.90;;;;;;4950617;28;20203;-79
2020/12/06 05:59:34;;;;;;;5.60;5.10;;;7.50;99.90;;;;;;4939842;28;20653;-80
2020/12/06 06:02:20;;;;;;;6.80;5.68;;;7.60;99.90;;;;;;4971194;28;20231;-80
2020/12/06 12:05:12;;;;;;;6.93;6.28;;;9.30;99.90;;;;;;6070670;23;20440;31
2020/12/06 12:07:46;;;;;;;7.32;6.63;;;9.30;99.90;;;;;;4970617;28;20258;-81
2020/12/06 12:10:14;;;;;;;9.02;8.13;;;9.30;99.90;;;;;;4972181;28;20174;-80
2020/12/06 12:12:42;;;;;;;8.68;7.72;;;9.30;99.90;;;;;;4972005;28;20198;-80
2020/12/06 12:15:14;;;;;;;9.15;8.07;;;9.30;99.90;;;;;;4973223;28;20227;-81
2020/12/06 12:17:41;;;;;;;7.80;7.00;;;9.30;99.90;;;;;;4992425;28;20233;-80
2020/12/06 12:20:16;;;;;;;7.55;6.85;;;9.30;99.90;;;;;;4991531;28;20183;-81
2020/12/06 12:23:11;;;;;;;9.65;8.35;;;9.30;99.90;;;;;;4992904;28;20194;-81
2020/12/06 12:25:39;;;;;;;10.10;8.40;;;9.30;99.90;;;;;;4975840;28;20194;-79
2020/12/06 12:28:08;;;;;;;10.82;8.68;;;9.30;99.90;;;;;;4975351;28;20187;-81
2020/12/06 12:30:53;;;;;;;9.85;8.82;;;9.30;99.90;;;;;;4975462;28;20175;-80
2020/12/06 12:33:28;;;;;;;10.43;9.00;;;9.30;99.90;;;;;;4993451;28;20262;-80
2020/12/06 12:36:35;;;;;;;9.38;8.40;;;9.30;99.90;;;;;;4992365;28;20202;-80
2020/12/06 12:39:25;;;;;;;9.90;8.90;;;9.30;99.90;;;;;;4992584;28;20637;-80
2020/12/06 12:42:36;;;;;;;10.82;9.60;;;9.30;99.90;;;;;;4992790;28;20539;-80
2020/12/06 12:45:52;;;;;;;13.65;9.30;;;9.30;99.90;;;;;;4980848;28;20187;-81
2020/12/06 12:48:21;;;;;;;11.45;10.25;;;9.30;99.90;;;;;;4992248;28;20217;-80
2020/12/06 12:51:05;;;;;;;10.48;8.90;;;9.30;99.90;;;;;;4992605;28;20195;-80
2020/12/06 12:54:45;;;;;;;11.73;10.30;;;9.20;99.90;;;;;;4992978;28;20575;-80
2020/12/06 12:57:51;;;;;;;13.77;8.98;;;9.20;99.90;;;;;;4955072;28;20241;-80
2020/12/06 13:00:57;;;;;;;9.95;8.40;;;9.20;99.90;;;;;;4992407;28;20163;-79
2020/12/06 13:03:37;;;;;;;9.60;8.70;;;9.20;99.90;;;;;;4932734;29;20180;-79
2020/12/06 13:10:01;;;;;;;10.20;9.20;;;9.10;99.90;;;;;;4973169;28;20540;-80
2020/12/06 13:12:51;;;;;;;;;;;;;;;;;;;;;
2020/12/06 13:15:42;;;;;;;10.15;9.02;;;9.10;99.90;;;;;;4975283;28;20226;-80
2020/12/06 13:18:42;;;;;;;10.23;9.05;;;9.10;99.90;;;;;;4990052;28;20203;-80
2020/12/06 13:21:21;;;;;;;11.52;10.38;;;9.10;99.90;;;;;;4991407;28;20190;-80
2020/12/06 13:24:51;;;;;;;;;;;;;;;;;;;;;
2020/12/06 13:31:49;;;;;;;;;;;;;;;;;;;;;
2020/12/06 13:34:52;;;;;;;11.27;10.10;;;9.00;99.90;;;;;;4989943;28;20648;-80
2020/12/06 13:37:47;;;;;;;11.55;10.15;;;9.00;99.90;;;;;;4973780;28;20237;-80
2020/12/06 13:54:17;;;;;;;;;;;;;;;;;;;;;
2020/12/06 14:11:32;;;;;;;13.73;11.23;;;8.80;99.90;;;;;;4840050;29;20341;-79
2020/12/06 14:15:49;;;;;;;;;;;;;;;;;;;;;
2020/12/06 14:19:46;;;;;;;;;;;;;;;;;;;;;
2020/12/06 14:24:33;;;;;;;;;;;;;;;;;;;;;
2020/12/06 14:41:07;;;;;;;;;;;;;;;;;;;;;
2020/12/06 14:44:52;;;;;;;13.25;11.45;;;8.50;99.90;;;;;;4787950;29;20276;-79
2020/12/06 14:49:14;;;;;;;17.15;10.27;;;8.50;99.90;;;;;;4788722;29;20183;-79
2020/12/06 14:52:49;;;;;;;16.35;11.13;;;8.40;99.90;;;;;;4791495;29;20181;-80
2020/12/06 14:55:44;;;;;;;15.05;11.60;;;8.40;99.90;;;;;;4822320;29;20225;-79
2020/12/06 14:58:16;;;;;;;13.63;11.10;;;8.40;99.90;;;;;;4914224;28;20183;-80
2020/12/06 15:00:44;;;;;;;17.20;13.40;;;8.40;99.90;;;;;;4994741;28;20262;-80
2020/12/06 15:11:59;;;;;;;16.88;12.88;;;8.40;99.90;;;;;;4929758;28;20304;-78
2020/12/06 15:14:47;;;;;;;14.57;12.88;;;8.40;99.90;;;;;;4994480;28;20185;-79
2020/12/06 15:17:29;;;;;;;17.15;13.40;;;8.40;99.90;;;;;;4992925;28;20704;-79
2020/12/06 15:20:56;;;;;;;;;;;;;;;;;;;;;
2020/12/06 15:25:09;;;;;;;20.08;13.48;;;8.30;99.90;;;;;;4908267;29;20204;-79
2020/12/06 15:28:24;;;;;;;19.85;14.15;;;8.40;99.90;;;;;;4895693;29;20223;-80
2020/12/06 15:30:52;;;;;;;16.90;13.68;;;8.40;99.90;;;;;;4992296;28;20166;-79
2020/12/06 15:33:21;;;;;;;18.63;14.40;;;8.40;99.90;;;;;;4995290;28;20660;-81
2020/12/06 15:36:11;;;;;;;15.95;12.95;;;8.40;99.90;;;;;;4992336;28;20209;-79
2020/12/06 15:38:39;;;;;;;19.52;15.38;;;8.40;99.90;;;;;;4992279;28;20171;-79
2020/12/06 15:41:10;;;;;;;18.42;14.98;;;8.30;99.90;;;;;;4993981;28;20571;-79
2020/12/06 15:43:36;;;;;;;22.25;16.45;;;8.30;99.90;;;;;;4994138;28;20258;-79
2020/12/06 15:46:04;;;;;;;22.55;16.05;;;8.30;99.90;;;;;;4992560;28;20226;-79
2020/12/06 15:48:30;;;;;;;18.83;15.35;;;8.30;99.90;;;;;;5008396;28;20182;-80
2020/12/06 15:50:56;;;;;;;21.92;17.50;;;8.30;99.90;;;;;;5008236;28;20715;-79
2020/12/06 15:53:22;;;;;;;20.70;16.50;;;8.30;99.90;;;;;;4992220;28;20286;-80
2020/12/06 15:55:48;;;;;;;21.20;17.00;;;8.30;99.90;;;;;;4993237;28;20704;-80
2020/12/06 15:58:14;;;;;;;21.33;18.30;;;8.30;99.90;;;;;;4993613;28;20579;-78
2020/12/06 16:00:40;;;;;;;22.77;17.17;;;8.30;99.90;;;;;;5009700;28;21173;-79
2020/12/06 16:03:06;;;;;;;23.87;18.90;;;8.30;99.90;;;;;;5011154;28;20229;-80
2020/12/06 16:05:35;;;;;;;22.95;19.65;;;8.30;99.90;;;;;;4999930;28;20599;-79
2020/12/06 16:08:01;;;;;;;31.02;23.15;;;8.30;99.90;;;;;;4994010;28;20181;-80
2020/12/06 16:10:27;;;;;;;28.53;21.50;;;8.20;99.90;;;;;;4993746;28;20175;-79
2020/12/06 16:12:55;;;;;;;25.10;18.50;;;8.20;99.90;;;;;;4992038;28;20613;-78
2020/12/06 16:15:22;;;;;;;31.70;23.83;;;8.20;99.90;;;;;;4994326;28;20198;-78
2020/12/06 16:17:47;;;;;;;32.92;23.90;;;8.20;99.90;;;;;;5007894;28;20566;-78
2020/12/06 16:20:14;;;;;;;32.90;24.77;;;8.20;99.90;;;;;;5007986;28;20510;-80
2020/12/06 16:22:40;;;;;;;33.33;25.60;;;8.20;99.90;;;;;;4997136;28;20578;-78
2020/12/06 16:25:05;;;;;;;29.80;22.57;;;8.10;99.90;;;;;;4991469;28;20181;-79
2020/12/06 16:27:32;;;;;;;30.40;23.60;;;8.10;99.90;;;;;;4993338;28;21217;-79
2020/12/06 16:29:57;;;;;;;34.97;25.08;;;8.10;99.90;;;;;;4991911;28;20585;-79
2020/12/06 16:32:23;;;;;;;28.63;23.77;;;8.10;99.90;;;;;;5008835;28;20543;-79
2020/12/06 16:34:49;;;;;;;29.77;23.40;;;8.10;99.90;;;;;;5008797;28;20618;-78
2020/12/06 16:37:15;;;;;;;26.33;21.20;;;8.10;99.90;;;;;;4992395;28;20610;-79
2020/12/06 16:39:41;;;;;;;30.17;23.85;;;8.10;99.90;;;;;;4993803;28;20930;-80
2020/12/06 16:42:09;;;;;;;35.47;25.70;;;8.10;99.90;;;;;;4995987;28;20179;-78
2020/12/06 16:44:35;;;;;;;32.45;22.98;;;8.00;99.90;;;;;;4992139;28;20654;-79
2020/12/06 16:47:01;;;;;;;32.13;25.50;;;8.10;99.90;;;;;;4994225;28;20245;-78
2020/12/06 16:49:27;;;;;;;32.67;24.50;;;8.10;99.90;;;;;;4958566;28;20627;-78
2020/12/06 16:51:56;;;;;;;26.57;21.30;;;8.00;99.90;;;;;;4991510;28;20202;-78
2020/12/06 16:54:25;;;;;;;28.08;21.50;;;8.00;99.90;;;;;;4986038;28;20598;-78
2020/12/06 16:56:51;;;;;;;27.45;20.83;;;8.00;99.90;;;;;;4971426;28;20203;-77
2020/12/06 16:59:17;;;;;;;28.67;22.60;;;8.00;99.90;;;;;;4972159;28;20251;-76
2020/12/06 17:01:48;;;;;;;26.00;21.52;;;8.00;99.90;;;;;;5023210;28;20647;-77
2020/12/06 17:04:14;;;;;;;28.55;21.85;;;8.00;99.90;;;;;;5013386;28;20175;-78
2020/12/06 17:06:39;;;;;;;22.90;19.50;;;8.00;99.90;;;;;;4991501;28;20189;-77
2020/12/06 17:09:06;;;;;;;27.50;21.15;;;8.00;99.90;;;;;;4991320;28;20241;-78
2020/12/06 17:11:33;;;;;;;23.20;20.17;;;8.00;99.90;;;;;;4990388;28;20167;-77
2020/12/06 17:13:59;;;;;;;20.95;16.95;;;8.00;99.90;;;;;;4979473;28;20211;-78
2020/12/06 17:16:25;;;;;;;20.40;18.30;;;8.00;99.90;;;;;;4971921;28;20234;-79
2020/12/06 17:18:50;;;;;;;21.50;17.10;;;8.00;99.90;;;;;;4950243;28;20185;-79
2020/12/06 17:21:18;;;;;;;19.87;16.47;;;8.00;99.90;;;;;;4990566;28;20570;-79
2020/12/06 17:23:44;;;;;;;22.92;16.20;;;8.00;99.90;;;;;;4992533;28;21124;-79
2020/12/06 17:26:16;;;;;;;20.30;16.27;;;8.10;99.90;;;;;;4992115;28;20285;-78
2020/12/06 17:28:42;;;;;;;19.42;15.93;;;8.00;99.90;;;;;;4991588;28;20574;-78
2020/12/06 17:31:08;;;;;;;18.95;15.23;;;8.00;99.90;;;;;;4990939;28;20229;-75
2020/12/06 17:33:34;;;;;;;18.27;15.40;;;8.00;99.90;;;;;;5006788;28;20582;-78
2020/12/06 17:36:00;;;;;;;18.67;15.30;;;8.00;99.90;;;;;;4990049;28;20648;-77
2020/12/06 17:38:27;;;;;;;20.63;17.92;;;8.00;99.90;;;;;;4991285;28;20918;-77
2020/12/06 17:40:53;;;;;;;25.08;19.65;;;8.00;99.90;;;;;;5006387;28;20167;-78
2020/12/06 17:43:22;;;;;;;20.08;17.40;;;7.90;99.90;;;;;;5006251;28;20179;-75
2020/12/06 17:45:48;;;;;;;19.83;17.60;;;7.90;99.90;;;;;;5006163;28;20565;-78
2020/12/06 17:48:17;;;;;;;25.13;19.27;;;7.90;99.90;;;;;;4989826;28;20163;-77
2020/12/06 17:50:44;;;;;;;20.88;16.02;;;7.80;99.90;;;;;;4989805;28;20175;-76
2020/12/06 17:53:10;;;;;;;19.37;16.40;;;7.80;99.90;;;;;;4991527;28;20178;-77
2020/12/06 17:55:40;;;;;;;18.63;16.38;;;7.80;99.90;;;;;;5005858;28;20644;-77
2020/12/06 17:58:06;;;;;;;21.52;17.55;;;7.80;99.90;;;;;;5006239;28;20175;-77
2020/12/06 18:00:32;;;;;;;19.07;17.03;;;7.70;99.90;;;;;;5003512;28;20185;-77
2020/12/06 18:02:57;;;;;;;19.80;17.60;;;7.70;99.90;;;;;;4990053;28;20178;-77
2020/12/06 18:05:29;;;;;;;19.30;17.07;;;7.70;99.90;;;;;;4991364;28;20606;-77
2020/12/06 18:07:56;;;;;;;24.30;18.95;;;7.70;99.90;;;;;;4972175;28;20210;-79
2020/12/06 18:10:22;;;;;;;24.13;19.33;;;7.70;99.90;;;;;;4988671;28;20187;-80
2020/12/06 18:12:47;;;;;;;22.13;17.43;;;7.70;99.90;;;;;;4975519;28;20179;-79
2020/12/06 18:15:13;;;;;;;21.97;18.37;;;7.80;99.90;;;;;;4979361;28;20654;-79
2020/12/06 18:17:39;;;;;;;23.93;18.37;;;7.80;99.90;;;;;;4974326;28;20599;-79
2020/12/06 18:20:05;;;;;;;21.43;18.37;;;7.80;99.90;;;;;;4990648;28;20490;-80
2020/12/06 18:22:33;;;;;;;20.30;18.00;;;7.80;99.90;;;;;;4991118;28;20164;-79
2020/12/06 18:24:59;;;;;;;20.38;17.95;;;7.80;99.90;;;;;;4992795;28;20575;-79
2020/12/06 18:27:25;;;;;;;19.83;16.87;;;7.80;99.90;;;;;;4990675;28;20183;-79
2020/12/06 18:29:51;;;;;;;20.58;17.77;;;7.90;99.90;;;;;;4994185;28;20577;-79
2020/12/06 18:32:17;;;;;;;21.77;19.40;;;7.90;99.90;;;;;;4994547;28;20167;-79
2020/12/06 18:34:43;;;;;;;19.83;17.80;;;7.90;99.90;;;;;;4976808;28;20677;-79
2020/12/06 18:37:09;;;;;;;22.67;19.63;;;7.90;99.90;;;;;;4994387;28;20278;-79
2020/12/06 18:39:35;;;;;;;27.40;19.55;;;7.90;99.90;;;;;;4992920;28;20640;-79
2020/12/06 18:42:01;;;;;;;23.63;20.77;;;7.90;99.90;;;;;;4992661;28;20163;-80
2020/12/06 18:44:27;;;;;;;22.60;18.23;;;7.90;99.90;;;;;;4992944;28;20948;-80
2020/12/06 18:46:54;;;;;;;22.33;18.37;;;7.90;99.90;;;;;;4994020;28;20203;-79
2020/12/06 18:49:20;;;;;;;21.67;17.75;;;7.90;99.90;;;;;;4998282;28;20608;-80
2020/12/06 18:51:48;;;;;;;23.20;18.95;;;7.90;99.90;;;;;;4994166;28;20191;-79
2020/12/06 18:54:14;;;;;;;19.13;17.05;;;7.90;99.90;;;;;;4994254;28;20167;-80
2020/12/06 18:56:42;;;;;;;20.45;18.13;;;7.90;99.90;;;;;;4993983;28;20222;-80
2020/12/06 18:59:09;;;;;;;19.83;16.45;;;7.90;99.90;;;;;;4990981;28;20190;-79
2020/12/06 19:01:35;;;;;;;19.15;16.73;;;7.90;99.90;;;;;;4993844;28;20175;-79
2020/12/06 19:04:01;;;;;;;19.73;17.13;;;7.90;99.90;;;;;;4989255;28;20213;-79
2020/12/06 19:06:27;;;;;;;19.60;16.90;;;7.90;99.90;;;;;;4981844;28;20689;-79
2020/12/06 19:08:53;;;;;;;22.37;16.80;;;7.90;99.90;;;;;;4992298;28;20744;-79
2020/12/06 19:11:19;;;;;;;18.00;14.53;;;7.90;99.90;;;;;;5008761;28;20566;-79
2020/12/06 19:13:45;;;;;;;17.55;14.05;;;7.90;99.90;;;;;;5008689;28;20589;-78
2020/12/06 19:16:12;;;;;;;20.23;16.40;;;7.90;99.90;;;;;;4993599;28;20206;-79
2020/12/06 19:18:38;;;;;;;22.35;18.65;;;7.90;99.90;;;;;;4993575;28;20670;-79
2020/12/06 19:21:05;;;;;;;23.42;18.73;;;7.90;99.90;;;;;;5008900;28;20178;-79
2020/12/06 19:23:31;;;;;;;22.45;18.05;;;7.90;99.90;;;;;;4993606;28;20637;-80
2020/12/06 19:25:57;;;;;;;22.43;18.07;;;7.90;99.90;;;;;;4994210;28;20197;-79
2020/12/06 19:28:23;;;;;;;23.33;18.90;;;7.90;99.90;;;;;;4996035;28;20636;-80
2020/12/06 19:30:49;;;;;;;22.60;17.63;;;7.90;99.90;;;;;;5008441;28;20578;-79
2020/12/06 19:33:15;;;;;;;20.37;17.27;;;7.90;99.90;;;;;;4993051;28;20221;-79
2020/12/06 19:35:41;;;;;;;19.93;17.83;;;7.90;99.90;;;;;;4992048;28;20637;-80
2020/12/06 19:38:08;;;;;;;22.67;18.80;;;7.90;99.90;;;;;;4991680;28;21170;-80
2020/12/06 19:40:35;;;;;;;22.50;19.13;;;7.90;99.90;;;;;;4992767;28;20598;-80
2020/12/06 19:43:01;;;;;;;22.95;17.95;;;7.90;99.90;;;;;;4993374;28;20167;-80
2020/12/06 19:45:28;;;;;;;22.80;18.33;;;7.90;99.90;;;;;;4975647;28;20499;-80
2020/12/06 19:47:56;;;;;;;20.40;16.17;;;7.80;99.90;;;;;;4978158;28;20171;-78
2020/12/06 19:50:22;;;;;;;18.52;15.77;;;7.80;99.90;;;;;;4994057;28;20159;-79
2020/12/06 19:52:48;;;;;;;21.27;18.00;;;7.80;99.90;;;;;;4997629;28;20176;-81
2020/12/06 19:55:13;;;;;;;24.80;17.97;;;7.80;99.90;;;;;;5000252;28;20715;-79
2020/12/06 19:57:39;;;;;;;16.63;13.70;;;7.80;99.90;;;;;;4999732;28;20711;-80
2020/12/06 20:00:08;;;;;;;19.57;15.10;;;7.80;99.90;;;;;;5017669;28;20179;-80
2020/12/06 20:02:37;;;;;;;19.83;16.63;;;7.70;99.90;;;;;;5010526;28;20179;-80
2020/12/06 20:05:04;;;;;;;20.25;15.15;;;7.70;99.90;;;;;;5012409;28;20225;-80
2020/12/06 20:07:32;;;;;;;26.17;18.23;;;7.70;99.90;;;;;;5024305;28;20209;-77
2020/12/06 20:09:59;;;;;;;18.58;15.00;;;7.70;99.90;;;;;;5015941;28;20173;-79
2020/12/06 20:12:25;;;;;;;22.23;16.60;;;7.70;99.90;;;;;;5015830;28;20167;-80
2020/12/06 20:14:51;;;;;;;25.92;18.63;;;7.70;99.90;;;;;;5015484;28;20289;-79
2020/12/06 20:17:26;;;;;;;21.02;17.25;;;7.70;99.90;;;;;;5029791;28;20198;-78
2020/12/06 20:19:56;;;;;;;24.65;17.50;;;7.70;99.90;;;;;;5014705;28;20182;-78
2020/12/06 20:22:22;;;;;;;23.80;17.77;;;7.70;99.90;;;;;;5014587;28;20211;-79
2020/12/06 20:24:51;;;;;;;22.10;17.83;;;7.70;99.90;;;;;;5029766;28;20163;-78
2020/12/06 20:27:18;;;;;;;22.63;17.75;;;7.70;99.90;;;;;;5001795;28;20198;-79
2020/12/06 20:29:49;;;;;;;20.10;15.50;;;7.70;99.90;;;;;;4993935;28;20193;-79
2020/12/06 20:32:16;;;;;;;23.92;16.65;;;7.70;99.90;;;;;;5009593;28;20665;-79
2020/12/06 20:34:42;;;;;;;22.17;16.80;;;7.70;99.90;;;;;;4995296;28;20171;-79
2020/12/06 20:37:09;;;;;;;24.83;19.48;;;7.70;99.90;;;;;;4995778;28;20269;-79
2020/12/06 20:39:35;;;;;;;23.52;18.42;;;7.70;99.90;;;;;;5010686;28;20202;-78
2020/12/06 20:42:01;;;;;;;29.13;22.40;;;7.70;99.90;;;;;;5000595;28;20167;-79
2020/12/06 20:44:27;;;;;;;22.65;18.13;;;7.70;99.90;;;;;;5010559;28;20585;-79
2020/12/06 20:46:53;;;;;;;25.63;18.88;;;7.70;99.90;;;;;;4994439;28;20273;-79
2020/12/06 20:49:20;;;;;;;24.80;18.55;;;7.70;99.90;;;;;;4992435;28;20230;-78
2020/12/06 20:51:46;;;;;;;35.80;29.07;;;7.70;99.90;;;;;;4989201;28;20720;-79
2020/12/06 20:54:13;;;;;;;31.55;24.45;;;7.60;99.90;;;;;;4992169;28;20578;-79
2020/12/06 20:56:43;;;;;;;23.92;18.83;;;7.60;99.90;;;;;;4992235;28;20225;-79